Time;durP1;ratioP1;P1;durP2;ratioP2;P2;SDS_P1;SDS_P2;PMS_P1;PMS_P2;Temp;Humidity;BMP_temperature;BMP_pressure;BME280_temperature;BME280_humidity;BME280_pressure;Samples;Min_cycle;Max_cycle;Signal;HPM_P1;HPM_P2
2022/01/31 00:02:23;;;;;;;27.40;7.07;;;6.20;85.20;;;;;;5011902;28;20034;-74
2022/01/31 00:04:49;;;;;;;21.88;6.00;;;6.20;85.10;;;;;;5019736;28;20358;-73
2022/01/31 00:07:15;;;;;;;21.25;7.07;;;6.30;85.20;;;;;;5016963;28;20370;-73
2022/01/31 00:09:42;;;;;;;21.88;6.15;;;6.30;85.10;;;;;;5019088;28;20072;-74
2022/01/31 00:12:12;;;;;;;17.42;5.50;;;6.40;85.20;;;;;;5017883;28;20045;-73
2022/01/31 00:14:43;;;;;;;27.75;7.68;;;6.40;85.10;;;;;;5005884;28;20049;-73
2022/01/31 00:17:11;;;;;;;19.35;6.15;;;6.40;85.20;;;;;;5010612;28;20057;-74
2022/01/31 00:19:38;;;;;;;23.85;6.82;;;6.40;85.10;;;;;;5011928;28;20545;-73
2022/01/31 00:22:05;;;;;;;20.38;5.88;;;6.40;85.40;;;;;;5010690;28;20045;-73
2022/01/31 00:24:31;;;;;;;21.45;6.53;;;6.50;85.30;;;;;;5010339;28;20037;-73
2022/01/31 00:26:57;;;;;;;28.65;7.55;;;6.50;85.60;;;;;;4996937;28;20036;-74
2022/01/31 00:29:22;;;;;;;22.85;5.82;;;6.40;85.80;;;;;;5013887;28;20037;-73
2022/01/31 00:31:48;;;;;;;24.45;6.10;;;6.50;85.90;;;;;;5009971;28;20139;-73
2022/01/31 00:34:14;;;;;;;18.10;5.35;;;6.50;86.10;;;;;;5005966;28;20037;-73
2022/01/31 00:36:39;;;;;;;25.95;6.55;;;6.40;86.30;;;;;;5013750;28;20623;-74
2022/01/31 00:39:06;;;;;;;24.60;6.40;;;6.40;86.50;;;;;;5011540;28;20474;-73
2022/01/31 00:41:31;;;;;;;16.65;5.30;;;6.40;86.70;;;;;;5007642;28;20424;-74
2022/01/31 00:44:44;;;;;;;30.08;6.60;;;6.40;87.00;;;;;;5011641;28;20034;-73
2022/01/31 00:46:52;;;;;;;26.08;6.38;;;6.40;87.50;;;;;;5011399;28;20452;-73
2022/01/31 00:49:36;;;;;;;21.27;6.00;;;6.40;88.00;;;;;;5018325;28;20842;-73
2022/01/31 00:52:03;;;;;;;24.63;6.00;;;6.40;88.50;;;;;;5015765;28;20088;-74
2022/01/31 00:54:29;;;;;;;21.42;6.38;;;6.30;88.90;;;;;;5020261;28;20465;-72
2022/01/31 00:56:55;;;;;;;27.13;6.72;;;6.30;89.10;;;;;;5034921;28;20039;-75
2022/01/31 00:59:21;;;;;;;26.92;5.30;;;6.40;89.40;;;;;;5019907;28;20069;-72
2022/01/31 01:01:47;;;;;;;28.23;6.95;;;6.30;89.70;;;;;;5017886;28;20180;-73
2022/01/31 01:04:13;;;;;;;24.63;6.10;;;6.30;89.90;;;;;;5020625;28;20116;-73
2022/01/31 01:06:39;;;;;;;27.27;6.78;;;6.40;90.10;;;;;;5028389;28;20040;-73
2022/01/31 01:09:05;;;;;;;25.33;6.32;;;6.40;90.40;;;;;;5030090;28;20683;-74
2022/01/31 01:11:30;;;;;;;22.75;6.45;;;6.30;90.50;;;;;;5025015;28;20076;-74
2022/01/31 01:13:56;;;;;;;22.95;6.55;;;6.40;90.80;;;;;;5024184;28;20050;-74
2022/01/31 01:16:22;;;;;;;30.52;6.55;;;6.40;90.90;;;;;;5020376;28;20354;-74
2022/01/31 01:18:48;;;;;;;22.63;6.97;;;6.40;91.00;;;;;;5020630;28;20128;-73
2022/01/31 01:21:13;;;;;;;25.42;6.78;;;6.40;91.10;;;;;;5031592;28;20354;-73
2022/01/31 01:23:39;;;;;;;22.98;6.40;;;6.40;91.10;;;;;;5036721;28;20469;-74
2022/01/31 01:26:05;;;;;;;20.95;7.15;;;6.40;91.20;;;;;;5030864;28;20095;-73
2022/01/31 01:28:30;;;;;;;22.67;7.55;;;6.40;91.30;;;;;;5024357;28;20042;-75
2022/01/31 01:30:56;;;;;;;28.98;8.85;;;6.40;91.40;;;;;;5026657;28;20133;-73
2022/01/31 01:33:23;;;;;;;19.42;7.28;;;6.40;91.50;;;;;;5020906;28;20045;-73
2022/01/31 01:35:53;;;;;;;20.33;6.97;;;6.40;91.50;;;;;;5021199;28;20037;-75
2022/01/31 01:38:22;;;;;;;22.85;7.78;;;6.50;91.70;;;;;;5021769;28;20603;-73
2022/01/31 01:40:48;;;;;;;18.25;6.95;;;6.50;91.80;;;;;;5025680;28;20060;-75
2022/01/31 01:43:15;;;;;;;20.90;7.65;;;6.50;91.90;;;;;;5023300;28;20058;-73
2022/01/31 01:45:43;;;;;;;21.83;8.55;;;6.40;92.10;;;;;;5020092;28;20120;-73
2022/01/31 01:48:10;;;;;;;22.02;9.07;;;6.50;92.20;;;;;;5022068;28;20051;-73
2022/01/31 01:50:38;;;;;;;20.85;8.90;;;6.50;92.40;;;;;;5019620;28;20033;-75
2022/01/31 01:53:05;;;;;;;24.02;9.43;;;6.50;92.50;;;;;;5026671;28;20049;-74
2022/01/31 01:55:31;;;;;;;23.73;9.45;;;6.50;92.70;;;;;;5021851;28;20651;-73
2022/01/31 01:57:57;;;;;;;19.58;9.45;;;6.60;92.70;;;;;;5026773;28;20044;-73
2022/01/31 02:00:26;;;;;;;20.58;8.50;;;6.60;92.80;;;;;;5022946;28;20064;-73
2022/01/31 02:02:52;;;;;;;17.65;8.05;;;6.60;92.90;;;;;;5023501;28;20114;-73
2022/01/31 02:05:19;;;;;;;20.45;8.93;;;6.60;93.00;;;;;;5021700;28;20147;-73
2022/01/31 02:07:45;;;;;;;24.30;9.10;;;6.60;93.10;;;;;;5021341;28;20055;-73
2022/01/31 02:10:12;;;;;;;18.52;10.25;;;6.70;93.30;;;;;;5024223;28;20465;-74
2022/01/31 02:12:42;;;;;;;22.50;10.75;;;6.80;93.30;;;;;;5036224;28;20036;-74
2022/01/31 02:15:09;;;;;;;26.40;10.90;;;6.80;93.50;;;;;;5017270;28;20120;-74
2022/01/31 02:17:35;;;;;;;21.30;8.43;;;7.00;93.60;;;;;;5022458;28;20064;-74
2022/01/31 02:20:03;;;;;;;15.82;6.72;;;7.10;93.20;;;;;;4999075;28;20472;-74
2022/01/31 02:22:29;;;;;;;18.55;5.05;;;7.30;91.80;;;;;;5019353;28;20036;-75
2022/01/31 02:24:54;;;;;;;18.25;4.15;;;7.70;88.20;;;;;;5017197;28;20260;-73
2022/01/31 02:27:31;;;;;;;17.00;4.88;;;7.80;87.70;;;;;;5024302;28;20048;-74
2022/01/31 02:29:57;;;;;;;17.25;4.70;;;7.80;87.80;;;;;;5028220;28;20061;-76
2022/01/31 02:32:24;;;;;;;18.92;4.97;;;7.90;87.50;;;;;;5019992;28;20148;-73
2022/01/31 02:34:51;;;;;;;19.73;5.13;;;8.00;87.20;;;;;;5008783;28;20057;-74
2022/01/31 02:37:18;;;;;;;20.70;5.30;;;7.90;87.60;;;;;;5022922;28;20488;-74
2022/01/31 02:39:44;;;;;;;18.45;5.15;;;7.80;87.70;;;;;;5022144;28;20080;-75
2022/01/31 02:42:10;;;;;;;16.95;4.40;;;7.90;86.90;;;;;;5021663;28;20584;-73
2022/01/31 02:44:44;;;;;;;15.23;4.53;;;7.90;87.20;;;;;;5036586;28;20118;-73
2022/01/31 02:47:15;;;;;;;20.40;4.30;;;7.80;86.80;;;;;;5016000;28;20140;-73
2022/01/31 02:49:53;;;;;;;14.73;3.83;;;7.80;86.50;;;;;;5014760;28;20033;-75
2022/01/31 02:52:19;;;;;;;10.15;3.17;;;7.70;86.30;;;;;;5017302;28;20033;-74
2022/01/31 02:54:45;;;;;;;14.05;3.60;;;7.70;85.60;;;;;;5015059;28;20064;-74
2022/01/31 02:57:11;;;;;;;13.10;3.60;;;7.60;84.60;;;;;;5004341;28;20373;-75
2022/01/31 02:59:37;;;;;;;11.82;2.85;;;7.60;84.00;;;;;;5030556;28;20468;-74
2022/01/31 03:02:03;;;;;;;16.05;2.60;;;7.50;83.50;;;;;;5020825;28;20041;-75
2022/01/31 03:04:29;;;;;;;17.88;3.17;;;7.50;83.20;;;;;;5010136;28;20045;-73
2022/01/31 03:06:55;;;;;;;13.02;3.15;;;7.40;82.70;;;;;;5019194;28;20120;-74
2022/01/31 03:09:21;;;;;;;14.27;3.08;;;7.40;82.10;;;;;;5018741;28;20060;-73
2022/01/31 03:11:47;;;;;;;12.70;2.67;;;7.40;81.80;;;;;;5013824;28;20041;-76
2022/01/31 03:14:16;;;;;;;9.60;2.97;;;7.30;81.70;;;;;;5019353;28;20029;-73
2022/01/31 03:16:49;;;;;;;16.70;2.90;;;7.30;81.80;;;;;;4999492;28;20522;-74
2022/01/31 03:19:17;;;;;;;16.33;2.47;;;7.30;81.60;;;;;;5013595;28;20540;-73
2022/01/31 03:21:43;;;;;;;12.68;2.80;;;7.10;82.40;;;;;;5019506;28;20025;-74
2022/01/31 03:24:10;;;;;;;11.70;3.13;;;7.10;82.10;;;;;;5020413;28;20073;-74
2022/01/31 03:26:36;;;;;;;14.98;3.80;;;7.10;82.50;;;;;;5023279;28;20030;-73
2022/01/31 03:29:02;;;;;;;12.13;2.47;;;7.10;82.40;;;;;;5019675;28;20088;-73
2022/01/31 03:31:28;;;;;;;11.57;3.15;;;7.10;82.90;;;;;;5015211;28;20460;-72
2022/01/31 03:33:54;;;;;;;12.00;3.00;;;7.00;83.00;;;;;;5020885;28;20033;-73
2022/01/31 03:36:21;;;;;;;17.95;2.55;;;7.00;82.60;;;;;;5015087;28;20464;-73
2022/01/31 03:38:47;;;;;;;11.38;2.45;;;7.10;82.00;;;;;;5033350;28;20389;-75
2022/01/31 03:41:16;;;;;;;10.63;2.78;;;7.00;81.90;;;;;;5020180;28;20037;-72
2022/01/31 03:43:42;;;;;;;9.32;2.78;;;7.00;82.00;;;;;;5022331;28;20345;-73
2022/01/31 03:46:08;;;;;;;11.85;3.33;;;7.00;81.50;;;;;;5020397;28;20057;-75
2022/01/31 03:48:34;;;;;;;12.43;2.78;;;7.00;81.10;;;;;;5021387;28;20192;-73
2022/01/31 03:51:02;;;;;;;13.25;3.08;;;7.00;80.70;;;;;;5015514;28;20424;-73
2022/01/31 03:53:28;;;;;;;14.50;2.78;;;7.00;80.80;;;;;;5016558;28;20041;-73
2022/01/31 03:55:54;;;;;;;10.43;2.63;;;7.00;80.40;;;;;;5022961;28;20041;-75
2022/01/31 03:58:19;;;;;;;15.23;4.55;;;7.00;80.50;;;;;;5019119;28;20062;-73
2022/01/31 04:00:45;;;;;;;15.40;3.05;;;6.90;80.80;;;;;;5017628;28;20095;-74
2022/01/31 04:03:11;;;;;;;14.82;2.65;;;6.90;81.20;;;;;;5027453;28;20033;-72
2022/01/31 04:05:37;;;;;;;13.15;2.80;;;6.80;81.40;;;;;;5021652;28;20029;-74
2022/01/31 04:08:06;;;;;;;12.48;3.35;;;6.80;81.70;;;;;;5020125;28;20445;-73
2022/01/31 04:10:32;;;;;;;10.30;2.35;;;6.80;81.60;;;;;;5022720;28;20477;-73
2022/01/31 04:12:58;;;;;;;11.77;2.47;;;6.80;81.00;;;;;;5014529;28;20045;-72
2022/01/31 04:15:24;;;;;;;13.57;2.95;;;6.80;81.10;;;;;;5026866;28;20033;-72
2022/01/31 04:17:49;;;;;;;11.35;2.72;;;6.80;81.00;;;;;;5025607;28;20451;-72
2022/01/31 04:20:16;;;;;;;10.15;2.45;;;6.80;80.80;;;;;;5009302;28;20358;-73
2022/01/31 04:22:54;;;;;;;14.27;2.90;;;6.90;80.20;;;;;;5014484;28;20057;-74
2022/01/31 04:25:41;;;;;;;16.33;3.65;;;7.00;80.00;;;;;;5023937;28;20032;-73
2022/01/31 04:28:16;;;;;;;15.25;2.63;;;7.00;79.60;;;;;;5025844;28;20146;-74
2022/01/31 04:30:49;;;;;;;;;;;7.00;79.30;;;;;;5029581;28;20029;-74
2022/01/31 04:33:15;;;;;;;15.80;3.38;;;7.00;78.90;;;;;;5016277;28;19912;-75
2022/01/31 04:35:40;;;;;;;15.50;2.88;;;7.10;78.80;;;;;;5036199;28;20025;-73
2022/01/31 04:38:06;;;;;;;9.32;2.50;;;7.00;78.70;;;;;;5029798;28;20045;-73
2022/01/31 04:40:32;;;;;;;14.68;3.13;;;7.00;78.30;;;;;;5016402;28;20406;-74
2022/01/31 04:42:57;;;;;;;12.85;2.92;;;7.00;78.00;;;;;;5020820;28;20449;-74
2022/01/31 04:45:23;;;;;;;17.58;3.47;;;7.10;77.60;;;;;;5019509;28;20775;-75
2022/01/31 04:47:49;;;;;;;13.60;2.72;;;7.00;77.90;;;;;;5026995;28;20243;-73
2022/01/31 04:50:15;;;;;;;14.70;3.08;;;7.10;77.30;;;;;;5014503;28;20041;-74
2022/01/31 04:52:42;;;;;;;14.13;3.47;;;7.00;77.50;;;;;;5033725;28;20029;-75
2022/01/31 04:55:08;;;;;;;16.08;3.70;;;6.90;77.90;;;;;;5020702;28;20491;-75
2022/01/31 04:57:35;;;;;;;18.17;3.28;;;6.90;77.70;;;;;;5022240;28;20025;-73
2022/01/31 05:00:02;;;;;;;14.68;3.20;;;6.90;78.10;;;;;;5027125;28;20030;-73
2022/01/31 05:02:27;;;;;;;18.70;4.07;;;6.80;78.00;;;;;;5025503;28;20075;-73
2022/01/31 05:04:53;;;;;;;13.73;2.90;;;6.80;77.90;;;;;;5011042;28;20140;-74
2022/01/31 05:07:19;;;;;;;13.43;2.75;;;6.80;78.30;;;;;;5025785;28;20495;-73
2022/01/31 05:09:45;;;;;;;12.07;2.50;;;6.90;77.90;;;;;;5025336;28;20540;-74
2022/01/31 05:12:11;;;;;;;22.02;3.97;;;6.80;78.00;;;;;;5024096;28;20029;-76
2022/01/31 05:14:36;;;;;;;14.18;3.22;;;6.80;78.00;;;;;;5030750;28;20460;-73
2022/01/31 05:17:02;;;;;;;16.33;3.25;;;6.80;77.60;;;;;;5010702;28;20832;-74
2022/01/31 05:19:28;;;;;;;18.73;3.92;;;6.70;77.90;;;;;;5021502;28;20425;-74
2022/01/31 05:21:53;;;;;;;15.27;3.38;;;6.80;77.10;;;;;;5016005;28;20025;-73
2022/01/31 05:24:19;;;;;;;18.13;3.63;;;6.80;76.50;;;;;;5017491;28;20041;-74
2022/01/31 05:26:50;;;;;;;12.68;2.90;;;6.80;76.70;;;;;;5010544;28;20026;-73
2022/01/31 05:29:19;;;;;;;12.50;3.30;;;6.70;76.70;;;;;;5015018;28;20477;-74
2022/01/31 05:31:45;;;;;;;18.85;3.70;;;6.70;77.20;;;;;;5014216;28;20025;-74
2022/01/31 05:34:12;;;;;;;17.45;4.07;;;6.70;76.60;;;;;;5018410;28;20026;-73
2022/01/31 05:36:38;;;;;;;17.42;3.03;;;6.70;76.90;;;;;;5012850;28;20093;-75
2022/01/31 05:39:04;;;;;;;16.88;3.72;;;6.60;77.00;;;;;;5013281;28;20470;-73
2022/01/31 05:41:30;;;;;;;16.33;3.63;;;6.60;77.70;;;;;;5011354;28;20071;-73
2022/01/31 05:43:55;;;;;;;17.85;3.25;;;6.60;77.80;;;;;;5013360;28;20084;-75
2022/01/31 05:46:21;;;;;;;17.88;3.97;;;6.60;77.60;;;;;;4993201;28;20033;-73
2022/01/31 05:48:47;;;;;;;18.70;3.50;;;6.60;77.90;;;;;;5025778;28;20515;-73
2022/01/31 05:51:21;;;;;;;16.20;4.15;;;6.60;77.80;;;;;;5022482;28;20037;-73
2022/01/31 05:53:48;;;;;;;15.70;3.50;;;6.60;77.70;;;;;;4996664;28;20042;-74
2022/01/31 05:56:15;;;;;;;23.48;4.47;;;6.60;77.40;;;;;;4998703;28;20455;-73
2022/01/31 05:58:42;;;;;;;18.75;3.65;;;6.60;77.00;;;;;;4996290;28;20493;-74
2022/01/31 06:01:08;;;;;;;20.70;4.25;;;6.60;76.90;;;;;;4995574;28;20037;-73
2022/01/31 06:03:34;;;;;;;20.38;3.63;;;6.60;77.00;;;;;;5001821;28;20034;-75
2022/01/31 06:06:00;;;;;;;18.60;4.22;;;6.60;76.90;;;;;;4992591;28;20037;-74
2022/01/31 06:08:26;;;;;;;21.00;3.55;;;6.60;76.70;;;;;;4998912;28;20038;-75
2022/01/31 06:10:52;;;;;;;21.10;4.43;;;6.70;76.70;;;;;;4994099;28;20026;-75
2022/01/31 06:13:23;;;;;;;13.85;3.47;;;6.60;76.80;;;;;;4997645;28;20029;-74
2022/01/31 06:15:49;;;;;;;17.45;3.65;;;6.60;76.70;;;;;;4994048;28;20034;-72
2022/01/31 06:18:15;;;;;;;16.42;3.50;;;6.60;77.00;;;;;;4997878;28;20026;-73
2022/01/31 06:20:41;;;;;;;14.73;3.30;;;6.70;76.40;;;;;;4992402;28;20031;-73
2022/01/31 06:23:07;;;;;;;18.45;3.08;;;6.70;76.50;;;;;;4992478;28;20065;-73
2022/01/31 06:25:34;;;;;;;18.85;3.42;;;6.80;76.60;;;;;;5005529;28;20038;-71
2022/01/31 06:28:00;;;;;;;14.50;3.35;;;6.60;77.10;;;;;;5034249;28;20075;-71
2022/01/31 06:30:26;;;;;;;16.75;3.55;;;6.60;77.20;;;;;;5007147;28;20593;-74
2022/01/31 06:32:53;;;;;;;18.50;3.88;;;6.60;76.70;;;;;;5002968;28;20583;-72
2022/01/31 06:35:19;;;;;;;20.58;4.03;;;6.70;76.60;;;;;;5002042;28;20117;-73
2022/01/31 06:37:44;;;;;;;21.15;4.05;;;6.60;76.90;;;;;;5009810;28;20120;-72
2022/01/31 06:40:10;;;;;;;20.58;3.85;;;6.70;76.40;;;;;;5004595;28;20084;-73
2022/01/31 06:42:36;;;;;;;17.67;3.08;;;6.70;76.10;;;;;;5013508;28;20026;-74
2022/01/31 06:45:03;;;;;;;18.17;4.40;;;6.70;75.90;;;;;;5010763;28;20034;-73
2022/01/31 06:47:29;;;;;;;19.08;4.22;;;6.80;75.80;;;;;;5004993;28;20037;-73
2022/01/31 06:49:55;;;;;;;17.02;3.28;;;6.80;75.60;;;;;;5002627;28;20034;-72
2022/01/31 06:52:21;;;;;;;13.38;2.95;;;6.80;75.30;;;;;;4996041;28;20034;-76
2022/01/31 06:54:50;;;;;;;18.60;4.53;;;6.90;74.20;;;;;;5020548;28;20666;-73
2022/01/31 06:57:22;;;;;;;20.00;4.25;;;7.00;74.10;;;;;;5029827;28;20128;-72
2022/01/31 06:59:48;;;;;;;18.48;4.00;;;7.00;73.90;;;;;;5006781;28;20128;-74
2022/01/31 07:02:13;;;;;;;19.52;3.83;;;7.00;73.60;;;;;;5022560;28;20534;-72
2022/01/31 07:04:39;;;;;;;14.40;3.25;;;7.00;73.90;;;;;;5017793;28;20257;-72
2022/01/31 07:07:05;;;;;;;20.85;3.88;;;7.00;73.40;;;;;;5022545;28;20325;-73
2022/01/31 07:09:30;;;;;;;14.98;3.95;;;7.00;74.10;;;;;;5025715;28;20326;-72
2022/01/31 07:12:00;;;;;;;18.42;4.20;;;7.00;73.50;;;;;;5018676;28;20041;-73
2022/01/31 07:14:32;;;;;;;15.07;3.65;;;7.00;72.90;;;;;;5025282;28;20036;-74
2022/01/31 07:17:03;;;;;;;18.15;3.90;;;7.00;72.10;;;;;;5022744;28;20435;-74
2022/01/31 07:19:32;;;;;;;15.05;2.85;;;7.00;72.60;;;;;;5027023;28;20552;-73
2022/01/31 07:21:58;;;;;;;16.10;3.85;;;7.00;72.60;;;;;;5012160;28;20125;-73
2022/01/31 07:24:42;;;;;;;17.75;3.63;;;7.00;72.50;;;;;;5015768;28;20034;-73
2022/01/31 07:27:08;;;;;;;16.65;4.45;;;7.00;72.90;;;;;;5016744;28;20035;-73
2022/01/31 07:29:34;;;;;;;14.20;3.67;;;7.00;72.50;;;;;;5023439;28;20029;-73
2022/01/31 07:32:01;;;;;;;18.13;4.03;;;7.00;72.90;;;;;;5013788;28;20112;-75
2022/01/31 07:34:27;;;;;;;19.52;4.30;;;7.00;72.70;;;;;;5023088;28;20029;-75
2022/01/31 07:36:53;;;;;;;16.25;3.85;;;7.00;72.60;;;;;;5021330;28;20660;-73
2022/01/31 07:39:20;;;;;;;14.25;3.33;;;7.00;72.30;;;;;;5015160;28;20037;-74
2022/01/31 07:41:46;;;;;;;17.20;3.25;;;7.00;72.40;;;;;;5001874;28;20033;-75
2022/01/31 07:44:12;;;;;;;14.73;3.50;;;6.90;72.80;;;;;;4999242;28;20067;-74
2022/01/31 07:46:38;;;;;;;16.92;4.32;;;6.90;72.60;;;;;;5017653;28;20116;-74
2022/01/31 07:49:05;;;;;;;21.15;4.65;;;6.90;73.00;;;;;;5022294;28;20045;-74
2022/01/31 07:51:31;;;;;;;20.33;4.57;;;6.80;72.80;;;;;;5020888;28;20552;-73
2022/01/31 07:53:57;;;;;;;17.55;3.30;;;6.80;72.40;;;;;;5007657;28;20053;-74
2022/01/31 07:56:22;;;;;;;16.92;4.60;;;6.80;72.00;;;;;;5022620;28;20381;-74
2022/01/31 07:58:48;;;;;;;22.20;4.70;;;6.80;72.70;;;;;;5005166;28;20029;-73
2022/01/31 08:01:14;;;;;;;19.30;4.18;;;6.70;72.80;;;;;;5027315;28;20025;-73
2022/01/31 08:03:40;;;;;;;19.02;4.65;;;6.70;72.90;;;;;;5004239;28;20232;-73
2022/01/31 08:06:06;;;;;;;20.90;4.15;;;6.70;72.90;;;;;;5020396;28;21272;-74
2022/01/31 08:08:34;;;;;;;20.05;3.95;;;6.70;72.90;;;;;;5020810;28;20034;-74
2022/01/31 08:11:01;;;;;;;21.23;4.65;;;6.60;73.60;;;;;;5019856;28;20033;-74
2022/01/31 08:13:26;;;;;;;23.80;4.72;;;6.60;73.50;;;;;;5019520;28;20069;-73
2022/01/31 08:18:38;;;;;;;19.70;4.40;;;6.60;73.20;;;;;;5021773;28;20346;-74
2022/01/31 08:21:06;;;;;;;24.85;4.72;;;6.60;73.00;;;;;;5020863;28;20072;-75
2022/01/31 08:23:32;;;;;;;24.00;4.35;;;6.70;73.40;;;;;;5025852;28;20033;-73
2022/01/31 08:26:00;;;;;;;20.05;4.55;;;6.70;73.30;;;;;;5031016;28;20044;-74
2022/01/31 08:28:39;;;;;;;24.70;5.28;;;6.60;73.60;;;;;;5021252;28;20029;-73
2022/01/31 08:31:15;;;;;;;21.05;3.92;;;6.60;73.20;;;;;;5026112;28;20510;-72
2022/01/31 08:33:49;;;;;;;17.27;3.85;;;6.60;73.00;;;;;;5013951;28;20044;-74
2022/01/31 08:36:16;;;;;;;18.67;3.60;;;6.70;73.00;;;;;;5002076;28;20384;-73
2022/01/31 08:38:43;;;;;;;21.20;4.07;;;6.60;72.40;;;;;;5013613;28;20049;-73
2022/01/31 08:41:11;;;;;;;17.95;4.20;;;6.60;72.20;;;;;;5020800;28;20029;-73
2022/01/31 08:43:38;;;;;;;22.73;4.82;;;6.60;72.60;;;;;;5023737;28;20048;-70
2022/01/31 08:46:05;;;;;;;23.08;4.72;;;6.60;72.20;;;;;;5017722;28;20052;-70
2022/01/31 08:48:31;;;;;;;17.05;4.57;;;6.60;71.90;;;;;;5015732;28;20313;-70
2022/01/31 08:50:58;;;;;;;19.27;3.83;;;6.60;72.30;;;;;;5010103;28;20046;-69
2022/01/31 08:53:24;;;;;;;23.20;4.90;;;6.70;71.50;;;;;;5007561;28;20050;-70
2022/01/31 08:55:56;;;;;;;22.13;5.60;;;6.70;71.30;;;;;;4995713;28;20415;-71
2022/01/31 08:58:22;;;;;;;24.95;5.15;;;6.80;71.60;;;;;;5019551;28;20099;-73
2022/01/31 09:00:57;;;;;;;25.38;4.80;;;6.80;71.40;;;;;;5023842;28;20239;-69
2022/01/31 09:03:41;;;;;;;19.88;4.07;;;6.80;71.50;;;;;;5013867;28;20037;-70
2022/01/31 09:06:09;;;;;;;19.23;4.40;;;6.90;71.40;;;;;;5005643;28;20081;-72
2022/01/31 09:08:36;;;;;;;19.95;4.95;;;6.90;71.10;;;;;;5004452;28;20057;-71
2022/01/31 09:11:02;;;;;;;17.10;4.40;;;6.90;70.70;;;;;;5014378;28;20091;-72
2022/01/31 09:13:27;;;;;;;24.55;4.90;;;6.90;70.30;;;;;;5016934;28;20030;-72
2022/01/31 09:15:53;;;;;;;15.40;4.72;;;6.90;70.40;;;;;;4994458;28;20029;-70
2022/01/31 09:18:19;;;;;;;20.65;4.88;;;6.90;69.90;;;;;;5013875;28;20385;-72
2022/01/31 09:20:44;;;;;;;19.02;4.30;;;6.90;70.00;;;;;;5014606;28;20133;-70
2022/01/31 09:23:11;;;;;;;18.55;4.47;;;6.90;70.20;;;;;;5023619;28;20038;-71
2022/01/31 09:25:43;;;;;;;19.27;5.03;;;6.90;68.90;;;;;;5025386;28;20037;-70
2022/01/31 09:28:10;;;;;;;18.50;4.30;;;6.90;69.80;;;;;;5018354;28;20049;-70
2022/01/31 09:30:36;;;;;;;23.40;5.05;;;6.90;69.40;;;;;;5014691;28;20064;-71
2022/01/31 09:33:02;;;;;;;22.00;4.57;;;7.00;69.90;;;;;;4995590;28;20140;-70
2022/01/31 09:35:28;;;;;;;17.40;4.20;;;7.00;69.30;;;;;;5012097;28;20030;-70
2022/01/31 09:37:53;;;;;;;19.17;4.18;;;7.00;69.60;;;;;;5014048;28;20523;-70
2022/01/31 09:40:21;;;;;;;19.52;4.30;;;7.00;69.10;;;;;;5012603;28;20045;-71
2022/01/31 09:46:14;;;;;;;23.15;4.95;;;7.00;68.50;;;;;;5010946;28;20111;-71
2022/01/31 09:48:41;;;;;;;21.40;5.28;;;7.10;68.50;;;;;;5011031;28;20144;-71
2022/01/31 09:51:09;;;;;;;16.00;4.10;;;7.10;69.20;;;;;;5003954;28;20045;-71
2022/01/31 09:53:44;;;;;;;23.90;5.68;;;7.00;68.00;;;;;;4992248;28;20242;-70
2022/01/31 09:56:13;;;;;;;16.52;4.05;;;7.00;67.70;;;;;;5017282;28;20337;-69
2022/01/31 09:58:40;;;;;;;22.05;5.20;;;7.00;68.00;;;;;;5015863;28;20860;-70
2022/01/31 10:01:10;;;;;;;20.63;4.07;;;7.00;67.60;;;;;;5019894;28;20041;-72
2022/01/31 10:03:53;;;;;;;19.80;4.68;;;7.00;68.10;;;;;;5020244;28;20060;-70
2022/01/31 10:06:22;;;;;;;20.52;4.35;;;7.00;67.40;;;;;;5025784;28;20476;-70
2022/01/31 10:08:59;;;;;;;17.20;4.65;;;7.00;67.30;;;;;;5011633;28;20511;-70
2022/01/31 10:11:28;;;;;;;20.35;3.83;;;7.00;67.30;;;;;;5019106;28;20424;-70
2022/01/31 10:16:46;;;;;;;19.30;4.38;;;7.00;67.70;;;;;;5024994;28;20037;-69
2022/01/31 10:19:12;;;;;;;16.80;3.80;;;6.90;67.00;;;;;;5019724;28;20057;-71
2022/01/31 10:22:17;;;;;;;15.02;3.70;;;6.90;67.70;;;;;;5030012;28;20121;-71
2022/01/31 10:24:46;;;;;;;21.38;3.65;;;7.00;67.10;;;;;;4968073;28;20127;-71
2022/01/31 10:27:34;;;;;;;17.52;3.88;;;6.90;67.00;;;;;;4961914;28;20368;-70
2022/01/31 10:30:10;;;;;;;14.02;4.35;;;6.80;66.10;;;;;;5004371;28;20037;-69
2022/01/31 10:32:39;;;;;;;19.25;4.47;;;6.80;67.00;;;;;;5019530;28;20064;-70
2022/01/31 10:35:08;;;;;;;17.02;3.90;;;6.80;67.30;;;;;;5022812;28;20850;-70
2022/01/31 10:37:36;;;;;;;19.48;4.78;;;6.80;67.50;;;;;;5021234;28;20036;-71
2022/01/31 10:53:48;;;;;;;18.13;3.95;;;7.00;64.50;;;;;;5027429;28;20505;-70
2022/01/31 10:56:14;;;;;;;16.88;4.20;;;7.00;65.60;;;;;;5023704;28;20410;-71
2022/01/31 10:59:01;;;;;;;17.25;4.15;;;7.10;65.40;;;;;;5031793;28;20043;-71
2022/01/31 11:01:28;;;;;;;17.33;3.67;;;7.10;65.20;;;;;;5021075;28;20036;-70
2022/01/31 11:03:55;;;;;;;14.00;3.33;;;7.20;65.80;;;;;;5025286;28;20032;-71
2022/01/31 11:06:23;;;;;;;17.67;4.00;;;7.30;64.50;;;;;;5021819;28;20045;-72
2022/01/31 11:08:49;;;;;;;20.95;4.18;;;7.20;64.40;;;;;;5020543;28;20033;-71
2022/01/31 11:11:15;;;;;;;18.38;4.13;;;7.30;64.70;;;;;;5020054;28;20069;-72
2022/01/31 11:13:41;;;;;;;15.85;4.70;;;7.20;64.30;;;;;;5021417;28;20894;-71
2022/01/31 11:16:08;;;;;;;17.40;4.00;;;7.20;65.00;;;;;;5015776;28;20041;-71
2022/01/31 11:18:35;;;;;;;17.55;4.07;;;7.20;65.80;;;;;;5024393;28;20067;-70
2022/01/31 11:21:06;;;;;;;15.02;4.45;;;7.20;65.50;;;;;;5017553;28;20481;-70
2022/01/31 11:23:38;;;;;;;19.42;4.10;;;7.10;65.30;;;;;;5018453;28;20432;-70
2022/01/31 11:26:06;;;;;;;14.23;3.72;;;7.10;65.10;;;;;;5015574;28;20163;-70
2022/01/31 11:28:34;;;;;;;16.75;4.53;;;7.00;65.10;;;;;;5015451;28;20030;-70
2022/01/31 11:31:02;;;;;;;20.50;4.22;;;7.10;65.60;;;;;;5012011;28;20033;-72
2022/01/31 11:33:28;;;;;;;20.75;4.30;;;7.00;65.00;;;;;;5000154;28;20117;-72
2022/01/31 11:35:54;;;;;;;18.95;3.72;;;7.00;65.70;;;;;;5003098;28;20042;-71
2022/01/31 11:38:21;;;;;;;16.17;4.43;;;7.10;65.90;;;;;;5002993;28;20732;-70
2022/01/31 11:40:47;;;;;;;15.85;4.28;;;7.10;65.30;;;;;;5002765;28;20973;-71
2022/01/31 11:43:15;;;;;;;15.98;3.38;;;7.10;65.30;;;;;;5001601;28;21154;-72
2022/01/31 11:45:44;;;;;;;18.50;5.45;;;7.10;65.70;;;;;;5001575;28;20258;-72
2022/01/31 11:48:30;;;;;;;24.85;5.78;;;7.10;65.30;;;;;;4998961;28;20045;-71
2022/01/31 11:51:01;;;;;;;14.70;4.43;;;7.10;66.20;;;;;;5003491;28;20037;-70
2022/01/31 11:53:33;;;;;;;17.13;4.30;;;7.00;66.50;;;;;;5002919;28;20048;-70
2022/01/31 11:56:17;;;;;;;23.75;4.82;;;6.90;66.40;;;;;;5002911;28;20037;-71
2022/01/31 11:58:49;;;;;;;17.30;3.67;;;6.90;66.60;;;;;;4988691;28;20087;-70
2022/01/31 12:01:16;;;;;;;16.50;3.75;;;6.80;65.70;;;;;;4999275;28;20208;-70
2022/01/31 12:03:59;;;;;;;19.13;3.45;;;6.80;65.30;;;;;;5004843;28;20030;-71
2022/01/31 12:06:27;;;;;;;19.25;3.22;;;6.80;65.30;;;;;;4997899;28;20034;-69
2022/01/31 12:09:02;;;;;;;19.73;5.00;;;6.70;65.50;;;;;;5003803;28;20033;-70
2022/01/31 12:11:29;;;;;;;18.10;4.63;;;6.80;66.20;;;;;;5001122;28;20057;-70
2022/01/31 12:14:07;;;;;;;13.20;3.40;;;6.80;66.50;;;;;;5004507;28;20022;-70
2022/01/31 12:16:50;;;;;;;16.85;4.50;;;6.80;66.80;;;;;;5006385;28;20079;-69
2022/01/31 12:22:00;;;;;;;16.25;3.60;;;6.80;66.00;;;;;;5004967;28;20038;-70
2022/01/31 12:24:31;;;;;;;20.17;3.70;;;6.90;66.80;;;;;;5028698;28;20041;-68
2022/01/31 12:27:09;;;;;;;19.17;3.70;;;7.00;65.90;;;;;;5032389;28;20026;-69
2022/01/31 12:29:42;;;;;;;18.77;3.33;;;7.00;66.50;;;;;;5008141;28;20036;-71
2022/01/31 12:32:10;;;;;;;23.58;4.07;;;7.00;66.00;;;;;;5021710;28;20075;-72
2022/01/31 12:34:44;;;;;;;16.10;3.85;;;6.90;66.80;;;;;;5027424;28;20036;-70
2022/01/31 12:37:32;;;;;;;18.02;4.05;;;6.80;66.80;;;;;;5019019;28;20037;-70
2022/01/31 12:40:09;;;;;;;14.90;4.57;;;6.80;66.60;;;;;;5030463;28;20042;-71
2022/01/31 12:42:53;;;;;;;17.92;4.28;;;6.90;66.90;;;;;;5036826;28;20025;-70
2022/01/31 12:45:32;;;;;;;18.23;4.17;;;6.90;67.00;;;;;;5025476;28;20364;-72
2022/01/31 12:48:11;;;;;;;19.40;4.38;;;7.00;67.60;;;;;;5014838;28;20045;-72
2022/01/31 12:50:59;;;;;;;18.65;4.82;;;7.10;67.50;;;;;;5026743;28;20124;-72
2022/01/31 12:53:37;;;;;;;15.88;4.00;;;7.00;66.90;;;;;;5027254;28;20052;-69
2022/01/31 12:56:08;;;;;;;19.75;4.22;;;6.90;65.70;;;;;;5026167;28;20500;-69
2022/01/31 12:58:43;;;;;;;16.85;4.35;;;6.90;65.40;;;;;;5025150;28;20056;-70
2022/01/31 13:01:21;;;;;;;23.52;4.53;;;7.00;65.90;;;;;;5005319;28;20120;-70
2022/01/31 13:03:51;;;;;;;19.55;3.70;;;6.90;65.60;;;;;;5022394;28;20060;-70
2022/01/31 13:06:34;;;;;;;19.52;4.45;;;6.90;66.50;;;;;;5025168;28;20033;-71
2022/01/31 13:09:07;;;;;;;15.77;4.10;;;6.90;66.40;;;;;;5032627;28;20040;-69
2022/01/31 13:11:33;;;;;;;18.20;4.28;;;6.90;65.90;;;;;;5023946;28;20025;-70
2022/01/31 13:14:11;;;;;;;17.30;4.03;;;6.90;66.90;;;;;;5025191;28;20060;-71
2022/01/31 13:16:45;;;;;;;24.27;5.50;;;6.80;66.40;;;;;;5026683;28;20037;-72
2022/01/31 13:19:17;;;;;;;20.23;4.25;;;6.80;66.90;;;;;;5015814;28;20061;-70
2022/01/31 13:21:43;;;;;;;20.15;4.18;;;6.80;66.90;;;;;;5026955;28;20021;-70